Portada
METAR-TAF:

METAR-TAF

Aeroports :

Koror, Babeldaob, Palau

latitud: 07-22N, longitud: 134-32E, altitud: 54 m

Observació

L'informe es va fer fa 41 minuts, a les 02:50 UTC
Vent 7 kt del Sud-Est
Temperatura 31°C
Humitat 66%
Pressió 1009 hPa
Visibilitat: 24.1 km
Núvols disperses a una alçada de 1700 ft
Cel ennuvolat a una alçada de 12000 ft
Cel ennuvolat a una alçada de 30000 ft

METAR: PTRO 060250Z 13007KT 15SM SCT017 BKN120 BKN300 31/24 A2981

Hora: 12:31 (03:31 UTC)

Pronòstic

L'informe es va fer fa 4 hores i 11 minuts, a les 23:20 UTC
Pronòstic vàlid del 06 a les 00 UTC al 06 a les 24 UTC
Vent 7 kt del Est
Visibilitat: 10 km
Núvols disperses a una alçada de 1600 ft
Cel ennuvolat a una alçada de 12000 ft
xàfecs en les proximitats

TAF: PTRO 052320Z 0600/0624 08007KT P6SM VCSH SCT016 BKN120

Observacions i pronòstics meteorològics de més de 4000 aeroports (METAR i TAF).

Les estacions disponibles són els punts grocs i vermells al mapa.

Posi el ratolí al punt desitjat per veure el nom de l'estació.

Feu clic per veure les observacions i els pronòstics meteorològics.

Per canviar el mapa: feu clic els botons verds amb una creu de color negre per apropar; al botó verd amb un guió per allunyar la imatge; o en les fletxes verdes per a mapes adjacents.


METAR-TAF: